Time;durP1;ratioP1;P1;durP2;ratioP2;P2;SDS_P1;SDS_P2;PMS_P1;PMS_P2;Temp;Humidity;BMP_temperature;BMP_pressure;BME280_temperature;BME280_humidity;BME280_pressure;Samples;Min_cycle;Max_cycle;Signal;HPM_P1;HPM_P2
2020/12/25 00:01:44;;;;;;;2.90;0.90;;;;;;;;;;10298897;28;20037;-62
2020/12/25 00:06:42;;;;;;;6.30;1.35;;;;;;;;;;10308396;28;20037;-60
2020/12/25 00:11:39;;;;;;;1.03;0.77;;;;;;;;;;10301161;28;20045;-58
2020/12/25 00:16:36;;;;;;;1.93;1.17;;;;;;;;;;10298862;28;20041;-63
2020/12/25 00:21:36;;;;;;;4.13;0.77;;;;;;;;;;10304400;28;20442;-58
2020/12/25 00:26:34;;;;;;;4.53;0.90;;;;;;;;;;10303714;28;21264;-61
2020/12/25 00:31:32;;;;;;;2.83;0.80;;;;;;;;;;10325473;28;20036;-62
2020/12/25 00:36:31;;;;;;;4.78;1.33;;;;;;;;;;10339604;28;20036;-62
2020/12/25 00:41:29;;;;;;;4.80;1.35;;;;;;;;;;10321002;28;20517;-58
2020/12/25 00:46:27;;;;;;;5.10;0.60;;;;;;;;;;10323712;28;20059;-62
2020/12/25 00:51:24;;;;;;;5.67;0.77;;;;;;;;;;10298764;28;20060;-56
2020/12/25 00:56:23;;;;;;;3.13;0.50;;;;;;;;;;10315732;28;20033;-60
2020/12/25 01:01:22;;;;;;;2.05;0.90;;;;;;;;;;10296354;28;20041;-60
2020/12/25 01:06:20;;;;;;;1.10;0.60;;;;;;;;;;10334444;28;20707;-62
2020/12/25 01:11:17;;;;;;;1.00;0.80;;;;;;;;;;10354367;28;20033;-60
2020/12/25 01:16:15;;;;;;;1.13;0.87;;;;;;;;;;10333395;28;20820;-61
2020/12/25 01:21:13;;;;;;;2.27;0.80;;;;;;;;;;10282673;28;20501;-60
2020/12/25 01:26:11;;;;;;;;;;;;;;;;;;10321221;28;20048;-61
2020/12/25 01:31:08;;;;;;;1.55;0.82;;;;;;;;;;10347452;28;20271;-60
2020/12/25 01:36:05;;;;;;;5.27;0.63;;;;;;;;;;10334870;28;20523;-58
2020/12/25 01:41:03;;;;;;;1.70;1.30;;;;;;;;;;10329371;28;20065;-58
2020/12/25 01:46:00;;;;;;;7.13;1.00;;;;;;;;;;10357186;28;20032;-63
2020/12/25 01:50:58;;;;;;;2.37;0.57;;;;;;;;;;10325729;28;20025;-59
2020/12/25 01:55:57;;;;;;;1.65;0.50;;;;;;;;;;10348737;28;20094;-59
2020/12/25 02:00:54;;;;;;;2.40;0.70;;;;;;;;;;10372103;28;20033;-63
2020/12/25 02:05:52;;;;;;;0.50;0.40;;;;;;;;;;10345581;28;20040;-60
2020/12/25 02:10:49;;;;;;;0.70;0.57;;;;;;;;;;10328854;28;20032;-60
2020/12/25 02:15:47;;;;;;;0.50;0.40;;;;;;;;;;10342845;28;20040;-59
2020/12/25 02:20:44;;;;;;;5.78;0.70;;;;;;;;;;10332057;28;20033;-58
2020/12/25 02:25:42;;;;;;;0.30;0.30;;;;;;;;;;10342568;28;20040;-61
2020/12/25 02:30:39;;;;;;;6.93;0.80;;;;;;;;;;10370903;28;20054;-59
2020/12/25 02:35:36;;;;;;;3.43;0.43;;;;;;;;;;10353183;28;20048;-59
2020/12/25 02:40:34;;;;;;;1.00;0.93;;;;;;;;;;10344307;28;20082;-57
2020/12/25 02:45:31;;;;;;;0.30;0.30;;;;;;;;;;10343373;28;20035;-60
2020/12/25 02:50:28;;;;;;;0.30;0.30;;;;;;;;;;10332220;28;20038;-56
2020/12/25 02:55:26;;;;;;;0.50;0.50;;;;;;;;;;10344786;28;20043;-57
2020/12/25 03:00:23;;;;;;;0.57;0.57;;;;;;;;;;10335653;28;20040;-61
2020/12/25 03:05:21;;;;;;;3.73;1.33;;;;;;;;;;10304482;28;20026;-58
2020/12/25 03:10:18;;;;;;;1.70;0.67;;;;;;;;;;10311433;28;20060;-58
2020/12/25 03:15:16;;;;;;;0.40;0.40;;;;;;;;;;10320279;28;20116;-58
2020/12/25 03:20:13;;;;;;;0.20;0.20;;;;;;;;;;10323418;28;20040;-58
2020/12/25 03:25:10;;;;;;;0.20;0.20;;;;;;;;;;10330103;28;20036;-54
2020/12/25 03:30:08;;;;;;;0.70;0.70;;;;;;;;;;10324747;28;20044;-58
2020/12/25 03:35:05;;;;;;;4.60;0.40;;;;;;;;;;10317433;28;20037;-58
2020/12/25 03:40:03;;;;;;;0.40;0.40;;;;;;;;;;10321895;28;20045;-58
2020/12/25 03:45:00;;;;;;;0.55;0.47;;;;;;;;;;10291721;28;20044;-59
2020/12/25 03:49:58;;;;;;;0.50;0.50;;;;;;;;;;10320384;28;20048;-58
2020/12/25 03:54:55;;;;;;;0.30;0.30;;;;;;;;;;10313546;28;20087;-60
2020/12/25 03:59:52;;;;;;;0.90;0.87;;;;;;;;;;10327668;28;20037;-57
2020/12/25 04:04:50;;;;;;;2.77;0.67;;;;;;;;;;10310453;28;20040;-58
2020/12/25 04:09:47;;;;;;;0.20;0.20;;;;;;;;;;10322769;28;20048;-62
2020/12/25 04:14:45;;;;;;;0.30;0.30;;;;;;;;;;10292506;28;20041;-61
2020/12/25 04:19:42;;;;;;;0.80;0.43;;;;;;;;;;10301707;28;20033;-59
2020/12/25 04:24:43;;;;;;;0.30;0.30;;;;;;;;;;10303770;28;20033;-63
2020/12/25 04:29:41;;;;;;;0.88;0.65;;;;;;;;;;10298333;28;20033;-59
2020/12/25 04:34:39;;;;;;;0.30;0.30;;;;;;;;;;10322828;28;20035;-60
2020/12/25 04:39:38;;;;;;;0.30;0.30;;;;;;;;;;10323241;28;20064;-59
2020/12/25 04:44:35;;;;;;;0.85;0.85;;;;;;;;;;10331874;28;20056;-61
2020/12/25 04:49:34;;;;;;;3.13;0.50;;;;;;;;;;10331009;28;20071;-60
2020/12/25 04:54:31;;;;;;;;;;;;;;;;;;10303085;28;20692;-58
2020/12/25 04:59:29;;;;;;;0.30;0.30;;;;;;;;;;10330121;28;19911;-61
2020/12/25 05:04:27;;;;;;;0.30;0.30;;;;;;;;;;10331909;28;20021;-60
2020/12/25 05:09:25;;;;;;;0.28;0.28;;;;;;;;;;10319275;28;20064;-58
2020/12/25 05:14:24;;;;;;;4.03;0.70;;;;;;;;;;10335469;28;20123;-59
2020/12/25 05:19:26;;;;;;;0.30;0.30;;;;;;;;;;10329647;28;20033;-61
2020/12/25 05:24:24;;;;;;;0.85;0.68;;;;;;;;;;10321184;28;20098;-60
2020/12/25 05:29:26;;;;;;;0.50;0.50;;;;;;;;;;10323888;28;20037;-58
2020/12/25 05:34:24;;;;;;;0.20;0.20;;;;;;;;;;10312029;28;20037;-60
2020/12/25 05:39:28;;;;;;;0.70;0.57;;;;;;;;;;10338465;28;20051;-57
2020/12/25 05:44:27;;;;;;;0.35;0.35;;;;;;;;;;10326106;28;20025;-58
2020/12/25 05:49:28;;;;;;;0.20;0.20;;;;;;;;;;10326027;28;21652;-58
2020/12/25 05:54:27;;;;;;;4.72;0.68;;;;;;;;;;10351236;28;20044;-59
2020/12/25 05:59:29;;;;;;;0.32;0.30;;;;;;;;;;10341193;28;20123;-58
2020/12/25 06:04:27;;;;;;;3.00;0.35;;;;;;;;;;10360761;28;20128;-58
2020/12/25 06:09:32;;;;;;;0.35;0.35;;;;;;;;;;10354546;28;20036;-58
2020/12/25 06:14:29;;;;;;;2.28;0.63;;;;;;;;;;10363395;28;20379;-60
2020/12/25 06:19:35;;;;;;;0.33;0.30;;;;;;;;;;10369047;28;20037;-60
2020/12/25 06:24:37;;;;;;;0.60;0.60;;;;;;;;;;10356343;28;20417;-57
2020/12/25 06:29:41;;;;;;;1.77;0.40;;;;;;;;;;10360533;28;20045;-59
2020/12/25 06:34:42;;;;;;;0.47;0.40;;;;;;;;;;10362788;28;20029;-55
2020/12/25 06:39:50;;;;;;;0.30;0.30;;;;;;;;;;10368741;28;20033;-56
2020/12/25 06:44:47;;;;;;;0.50;0.50;;;;;;;;;;10379473;27;20040;-55
2020/12/25 06:49:46;;;;;;;0.30;0.30;;;;;;;;;;10362040;28;20041;-61
2020/12/25 06:54:43;;;;;;;0.90;0.57;;;;;;;;;;10331951;28;20565;-57
2020/12/25 06:59:41;;;;;;;0.37;0.37;;;;;;;;;;10334898;28;20105;-59
2020/12/25 07:04:38;;;;;;;0.45;0.45;;;;;;;;;;10300186;28;20082;-59
2020/12/25 07:09:37;;;;;;;0.73;0.73;;;;;;;;;;10320429;28;20101;-58
2020/12/25 07:14:34;;;;;;;1.10;0.65;;;;;;;;;;10321292;28;20453;-60
2020/12/25 07:19:35;;;;;;;0.43;0.43;;;;;;;;;;10324748;28;20064;-61
2020/12/25 07:24:36;;;;;;;0.40;0.40;;;;;;;;;;10313427;28;20053;-58
2020/12/25 07:29:36;;;;;;;0.98;0.60;;;;;;;;;;10310671;28;20041;-59
2020/12/25 07:34:33;;;;;;;2.47;0.85;;;;;;;;;;10324994;28;20101;-57
2020/12/25 07:39:31;;;;;;;0.70;0.70;;;;;;;;;;10319773;28;20021;-61
2020/12/25 07:44:28;;;;;;;1.50;0.80;;;;;;;;;;10316948;28;20044;-59
2020/12/25 07:49:27;;;;;;;0.90;0.90;;;;;;;;;;10319758;28;20037;-61
2020/12/25 07:54:25;;;;;;;2.15;1.08;;;;;;;;;;10319095;28;20039;-59
2020/12/25 07:59:25;;;;;;;0.93;0.80;;;;;;;;;;10326778;28;20120;-59
2020/12/25 08:04:22;;;;;;;2.58;0.90;;;;;;;;;;10334766;28;20033;-62
2020/12/25 08:09:20;;;;;;;1.73;1.37;;;;;;;;;;10324251;28;20419;-58
2020/12/25 08:14:18;;;;;;;3.25;0.80;;;;;;;;;;10338128;28;20548;-60
2020/12/25 08:19:17;;;;;;;4.75;0.90;;;;;;;;;;10343352;28;20057;-63
2020/12/25 08:24:18;;;;;;;4.63;1.35;;;;;;;;;;10329389;28;20036;-61
2020/12/25 08:29:15;;;;;;;2.58;1.27;;;;;;;;;;10314424;28;20048;-58
2020/12/25 08:34:22;;;;;;;2.63;1.60;;;;;;;;;;10318265;28;20426;-59
2020/12/25 08:39:30;;;;;;;1.27;1.00;;;;;;;;;;10329237;28;20032;-62
2020/12/25 08:44:31;;;;;;;1.45;1.10;;;;;;;;;;10338139;28;20530;-63
2020/12/25 08:49:29;;;;;;;3.13;0.98;;;;;;;;;;10346720;28;20037;-59
2020/12/25 08:54:27;;;;;;;1.83;0.90;;;;;;;;;;10330503;28;20507;-60
2020/12/25 08:59:24;;;;;;;1.52;1.30;;;;;;;;;;10327694;28;20037;-59
2020/12/25 09:04:22;;;;;;;2.40;1.20;;;;;;;;;;10321567;28;20420;-64
2020/12/25 09:09:20;;;;;;;3.78;1.30;;;;;;;;;;10324965;28;20068;-58
2020/12/25 09:14:18;;;;;;;2.85;1.35;;;;;;;;;;10336116;28;20032;-57
2020/12/25 09:19:15;;;;;;;4.03;0.83;;;;;;;;;;10351355;28;20037;-59
2020/12/25 09:24:12;;;;;;;0.70;0.70;;;;;;;;;;10326620;28;20037;-61
2020/12/25 09:29:10;;;;;;;0.63;0.63;;;;;;;;;;10322657;28;20037;-61
2020/12/25 09:34:07;;;;;;;1.17;1.07;;;;;;;;;;10351625;28;20036;-62
2020/12/25 09:39:05;;;;;;;2.80;0.87;;;;;;;;;;10372748;28;20120;-63
2020/12/25 09:44:02;;;;;;;1.40;1.13;;;;;;;;;;10374908;28;20051;-59
2020/12/25 09:48:59;;;;;;;1.40;1.30;;;;;;;;;;10342650;28;20060;-60
2020/12/25 09:53:57;;;;;;;2.90;1.33;;;;;;;;;;10316552;28;20033;-60
2020/12/25 09:58:54;;;;;;;4.33;1.27;;;;;;;;;;10336338;28;20041;-61
2020/12/25 10:03:52;;;;;;;1.10;0.87;;;;;;;;;;10345973;28;20123;-60
2020/12/25 10:08:49;;;;;;;4.23;0.60;;;;;;;;;;10311513;28;20037;-61
2020/12/25 10:13:46;;;;;;;4.57;1.00;;;;;;;;;;10330229;28;20413;-59
2020/12/25 10:18:44;;;;;;;0.53;0.53;;;;;;;;;;10360578;28;20033;-61
2020/12/25 10:23:41;;;;;;;4.33;1.43;;;;;;;;;;10348759;28;20051;-61
2020/12/25 10:28:38;;;;;;;2.07;1.03;;;;;;;;;;10368102;28;20606;-63
2020/12/25 10:33:39;;;;;;;1.17;0.90;;;;;;;;;;10363589;28;20037;-60
2020/12/25 10:38:37;;;;;;;5.05;1.30;;;;;;;;;;10372581;28;20124;-61
2020/12/25 10:43:35;;;;;;;6.00;1.03;;;;;;;;;;10355910;28;20140;-62
2020/12/25 10:48:32;;;;;;;1.70;0.73;;;;;;;;;;10355585;28;20036;-61
2020/12/25 10:53:30;;;;;;;1.93;0.80;;;;;;;;;;10357123;28;20063;-62
2020/12/25 10:58:27;;;;;;;0.83;0.43;;;;;;;;;;10372287;28;20036;-62
2020/12/25 11:03:24;;;;;;;1.60;0.73;;;;;;;;;;10362201;28;20040;-62
2020/12/25 11:08:22;;;;;;;6.23;1.93;;;;;;;;;;10367941;28;20040;-63
2020/12/25 11:13:19;;;;;;;1.63;0.80;;;;;;;;;;10365774;28;20033;-61
2020/12/25 11:18:16;;;;;;;2.70;1.30;;;;;;;;;;10360015;28;20039;-65
2020/12/25 11:23:14;;;;;;;1.73;0.97;;;;;;;;;;10370650;28;20155;-62
2020/12/25 11:28:11;;;;;;;2.13;0.97;;;;;;;;;;10364327;28;20040;-63
2020/12/25 11:33:09;;;;;;;1.80;0.67;;;;;;;;;;10352912;28;20041;-61
2020/12/25 11:38:06;;;;;;;1.30;0.60;;;;;;;;;;10349780;28;20040;-61
2020/12/25 11:43:04;;;;;;;2.80;0.53;;;;;;;;;;10340299;28;20632;-62
2020/12/25 11:48:01;;;;;;;0.43;0.43;;;;;;;;;;10312719;28;20037;-61
2020/12/25 11:52:59;;;;;;;3.10;0.57;;;;;;;;;;10360386;28;20033;-61
2020/12/25 11:57:56;;;;;;;1.02;0.57;;;;;;;;;;10367234;28;20113;-59
2020/12/25 12:02:54;;;;;;;1.07;0.57;;;;;;;;;;10353456;28;20216;-62
2020/12/25 12:07:51;;;;;;;3.53;0.70;;;;;;;;;;10364888;28;20032;-61
2020/12/25 12:12:49;;;;;;;1.00;0.30;;;;;;;;;;10331563;28;20013;-62
2020/12/25 12:17:49;;;;;;;0.20;0.20;;;;;;;;;;10339201;28;20025;-59
2020/12/25 12:22:47;;;;;;;0.47;0.30;;;;;;;;;;10360383;28;20040;-62
2020/12/25 12:27:44;;;;;;;0.10;0.10;;;;;;;;;;10356207;28;20483;-62
2020/12/25 12:32:42;;;;;;;2.90;0.50;;;;;;;;;;10364736;28;20513;-60
2020/12/25 12:37:44;;;;;;;0.23;0.23;;;;;;;;;;10365570;28;20036;-63
2020/12/25 12:42:43;;;;;;;0.45;0.35;;;;;;;;;;10344146;28;20048;-61
2020/12/25 12:47:42;;;;;;;0.50;0.38;;;;;;;;;;10363226;28;20040;-59
2020/12/25 12:52:40;;;;;;;0.50;0.20;;;;;;;;;;10348738;28;20041;-61
2020/12/25 12:57:38;;;;;;;1.80;0.30;;;;;;;;;;10318504;28;20071;-61
2020/12/25 13:02:35;;;;;;;0.43;0.30;;;;;;;;;;10310669;28;20033;-62
2020/12/25 13:07:36;;;;;;;0.75;0.25;;;;;;;;;;10357202;28;20029;-62
2020/12/25 13:12:34;;;;;;;0.20;0.20;;;;;;;;;;10315894;28;20025;-60
2020/12/25 13:17:32;;;;;;;0.10;0.10;;;;;;;;;;10308100;28;20029;-62
2020/12/25 13:22:30;;;;;;;0.20;0.20;;;;;;;;;;10297842;28;20048;-64
2020/12/25 13:27:28;;;;;;;;;;;;;;;;;;10295521;28;20037;-59
2020/12/25 13:32:28;;;;;;;1.77;0.20;;;;;;;;;;10312403;28;19917;-59
2020/12/25 13:37:26;;;;;;;0.10;0.10;;;;;;;;;;10299469;28;20045;-57
2020/12/25 13:42:24;;;;;;;0.40;0.40;;;;;;;;;;10338793;28;20064;-60
2020/12/25 13:47:22;;;;;;;0.38;0.35;;;;;;;;;;10301391;28;20486;-60
2020/12/25 13:52:20;;;;;;;0.20;0.20;;;;;;;;;;10291562;28;20768;-58
2020/12/25 13:57:18;;;;;;;0.38;0.20;;;;;;;;;;10285249;28;20509;-61
2020/12/25 14:02:17;;;;;;;0.40;0.40;;;;;;;;;;10326603;28;20112;-61
2020/12/25 14:07:14;;;;;;;0.33;0.33;;;;;;;;;;10315780;28;20570;-60
2020/12/25 14:12:12;;;;;;;0.20;0.20;;;;;;;;;;10320426;28;20055;-58
2020/12/25 14:17:09;;;;;;;2.00;0.43;;;;;;;;;;10333550;28;20040;-62
2020/12/25 14:22:07;;;;;;;2.57;0.40;;;;;;;;;;10360594;28;20423;-60
2020/12/25 14:27:04;;;;;;;0.67;0.30;;;;;;;;;;10317833;28;20091;-63
2020/12/25 14:32:01;;;;;;;0.77;0.23;;;;;;;;;;10313826;28;20040;-58
2020/12/25 14:36:59;;;;;;;2.43;0.20;;;;;;;;;;10343373;28;20195;-61
2020/12/25 14:42:01;;;;;;;0.77;0.17;;;;;;;;;;10352050;28;20032;-60
2020/12/25 14:46:58;;;;;;;8.60;2.50;;;;;;;;;;10340812;28;20029;-59
2020/12/25 14:51:56;;;;;;;20.90;8.83;;;;;;;;;;10329080;28;20025;-62
2020/12/25 14:56:56;;;;;;;4.83;2.23;;;;;;;;;;10348900;28;20040;-58
2020/12/25 15:01:54;;;;;;;12.63;6.35;;;;;;;;;;10331015;28;20052;-62
2020/12/25 15:06:51;;;;;;;7.67;2.77;;;;;;;;;;10361547;28;20569;-59
2020/12/25 15:11:51;;;;;;;9.70;4.90;;;;;;;;;;10358051;28;20037;-56
2020/12/25 15:16:52;;;;;;;10.18;4.13;;;;;;;;;;10328793;28;20033;-58
2020/12/25 15:21:49;;;;;;;6.60;3.20;;;;;;;;;;10311252;28;20172;-63
2020/12/25 15:26:50;;;;;;;6.83;2.07;;;;;;;;;;10292606;28;20452;-59
2020/12/25 15:31:51;;;;;;;1.90;1.10;;;;;;;;;;10283395;28;20045;-60
2020/12/25 15:36:58;;;;;;;4.78;1.85;;;;;;;;;;10319992;28;20249;-61
2020/12/25 15:41:57;;;;;;;5.63;2.67;;;;;;;;;;10302794;28;20061;-60
2020/12/25 15:46:55;;;;;;;;;;;;;;;;;;10275629;28;20033;-61
2020/12/25 15:51:56;;;;;;;2.33;0.88;;;;;;;;;;10290160;28;20297;-61
2020/12/25 15:56:54;;;;;;;6.32;1.63;;;;;;;;;;10282801;28;20045;-62
2020/12/25 16:01:52;;;;;;;;;;;;;;;;;;10275533;28;20041;-61
2020/12/25 16:06:50;;;;;;;1.70;1.15;;;;;;;;;;10291124;28;19963;-64
2020/12/25 16:11:48;;;;;;;3.30;1.75;;;;;;;;;;10313862;28;20499;-61
2020/12/25 16:16:46;;;;;;;4.67;1.83;;;;;;;;;;10322384;28;20041;-63
2020/12/25 16:21:44;;;;;;;5.65;3.65;;;;;;;;;;10287910;28;20069;-62
2020/12/25 16:26:45;;;;;;;15.85;3.95;;;;;;;;;;10291767;28;20048;-61
2020/12/25 16:31:42;;;;;;;9.73;5.55;;;;;;;;;;10288569;28;20135;-59
2020/12/25 16:36:40;;;;;;;9.47;5.80;;;;;;;;;;10288715;28;20575;-62
2020/12/25 16:41:37;;;;;;;9.30;4.50;;;;;;;;;;10273701;28;20037;-60
2020/12/25 16:46:35;;;;;;;5.50;5.03;;;;;;;;;;10334869;28;20044;-62
2020/12/25 16:51:32;;;;;;;12.37;7.97;;;;;;;;;;10332220;28;20047;-60
2020/12/25 16:56:30;;;;;;;13.93;9.67;;;;;;;;;;10334547;28;20033;-60
2020/12/25 17:01:27;;;;;;;2.37;1.57;;;;;;;;;;10337410;28;20029;-62
2020/12/25 17:06:25;;;;;;;3.77;2.00;;;;;;;;;;10316446;28;20055;-60
2020/12/25 17:11:23;;;;;;;21.05;8.27;;;;;;;;;;10281060;28;20042;-64
2020/12/25 17:16:21;;;;;;;3.33;2.13;;;;;;;;;;10314506;28;20033;-61
2020/12/25 17:21:20;;;;;;;5.13;2.88;;;;;;;;;;10323408;28;20102;-61
2020/12/25 17:26:19;;;;;;;6.13;4.22;;;;;;;;;;10327957;28;20395;-57
2020/12/25 17:31:16;;;;;;;11.93;5.57;;;;;;;;;;10334895;28;20032;-59
2020/12/25 17:36:14;;;;;;;10.90;2.60;;;;;;;;;;10336408;28;20033;-58
2020/12/25 17:41:13;;;;;;;2.72;1.95;;;;;;;;;;10336516;28;20317;-58
2020/12/25 17:46:14;;;;;;;8.85;4.53;;;;;;;;;;10359336;28;20039;-58
2020/12/25 17:51:13;;;;;;;10.38;6.18;;;;;;;;;;10355755;28;20048;-64
2020/12/25 17:56:17;;;;;;;18.55;8.05;;;;;;;;;;10348806;28;20564;-62
2020/12/25 18:01:16;;;;;;;6.72;4.15;;;;;;;;;;10353917;28;20066;-62
2020/12/25 18:06:13;;;;;;;1.77;1.67;;;;;;;;;;10355196;28;20036;-61
2020/12/25 18:11:14;;;;;;;9.33;5.47;;;;;;;;;;10359734;28;20036;-63
2020/12/25 18:16:12;;;;;;;11.02;6.25;;;;;;;;;;10347472;28;20049;-59
2020/12/25 18:21:09;;;;;;;2.70;1.90;;;;;;;;;;10352444;28;20430;-58
2020/12/25 18:26:07;;;;;;;2.70;2.17;;;;;;;;;;10365054;28;20055;-61
2020/12/25 18:31:04;;;;;;;3.07;2.23;;;;;;;;;;10346738;28;20040;-58
2020/12/25 18:36:05;;;;;;;3.37;2.20;;;;;;;;;;10330701;28;20098;-60
2020/12/25 18:41:02;;;;;;;2.00;1.52;;;;;;;;;;10324814;28;20344;-63
2020/12/25 18:46:00;;;;;;;4.57;2.50;;;;;;;;;;10354445;28;20033;-60
2020/12/25 18:50:59;;;;;;;3.97;2.40;;;;;;;;;;10324596;28;20044;-65
2020/12/25 18:55:56;;;;;;;1.58;1.48;;;;;;;;;;10331305;28;20041;-59
2020/12/25 19:00:54;;;;;;;1.17;1.17;;;;;;;;;;10330928;28;20029;-60
2020/12/25 19:05:51;;;;;;;1.77;1.27;;;;;;;;;;10314635;28;20056;-59
2020/12/25 19:10:51;;;;;;;2.03;0.93;;;;;;;;;;10318131;28;20056;-60
2020/12/25 19:15:50;;;;;;;1.50;1.40;;;;;;;;;;10312303;28;20033;-61
2020/12/25 19:20:49;;;;;;;1.63;1.52;;;;;;;;;;10330481;28;20506;-60
2020/12/25 19:25:47;;;;;;;1.88;1.55;;;;;;;;;;10364308;28;20402;-58
2020/12/25 19:30:48;;;;;;;1.42;1.35;;;;;;;;;;10337050;28;20041;-61
2020/12/25 19:35:46;;;;;;;1.23;0.60;;;;;;;;;;10318959;28;20040;-62
2020/12/25 19:40:44;;;;;;;0.98;0.98;;;;;;;;;;10312991;28;20155;-60
2020/12/25 19:45:41;;;;;;;1.13;1.03;;;;;;;;;;10334700;28;20159;-60
2020/12/25 19:50:39;;;;;;;2.53;1.30;;;;;;;;;;10351185;28;20065;-60
2020/12/25 19:55:36;;;;;;;0.70;0.70;;;;;;;;;;10324475;28;20132;-55
2020/12/25 20:00:33;;;;;;;6.93;2.37;;;;;;;;;;10356929;28;20655;-58
2020/12/25 20:05:31;;;;;;;4.37;2.27;;;;;;;;;;10352182;28;20105;-60
2020/12/25 20:10:28;;;;;;;4.77;2.30;;;;;;;;;;10326877;28;20061;-60
2020/12/25 20:15:26;;;;;;;6.50;4.20;;;;;;;;;;10347000;28;20032;-61
2020/12/25 20:20:28;;;;;;;4.47;3.27;;;;;;;;;;10365739;28;20056;-60
2020/12/25 20:25:26;;;;;;;10.05;4.47;;;;;;;;;;10314142;28;20417;-60
2020/12/25 20:30:23;;;;;;;12.63;5.53;;;;;;;;;;10359851;28;20051;-60
2020/12/25 20:35:20;;;;;;;10.40;5.23;;;;;;;;;;10326536;28;20029;-60
2020/12/25 20:40:18;;;;;;;7.30;3.53;;;;;;;;;;10337695;28;20045;-58
2020/12/25 20:45:16;;;;;;;9.70;3.33;;;;;;;;;;10322163;28;20087;-64
2020/12/25 20:50:13;;;;;;;8.90;4.15;;;;;;;;;;10317808;28;20037;-60
2020/12/25 20:55:11;;;;;;;6.67;3.57;;;;;;;;;;10371067;28;20047;-58
2020/12/25 21:00:09;;;;;;;7.93;4.17;;;;;;;;;;10356533;28;20395;-60
2020/12/25 21:05:06;;;;;;;11.25;4.43;;;;;;;;;;10360643;28;20283;-58
2020/12/25 21:10:04;;;;;;;5.73;4.53;;;;;;;;;;10370818;28;20032;-60
2020/12/25 21:15:02;;;;;;;8.35;4.47;;;;;;;;;;10367645;28;21899;-60
2020/12/25 21:19:59;;;;;;;10.32;5.22;;;;;;;;;;10369712;28;20075;-58
2020/12/25 21:24:57;;;;;;;5.87;4.73;;;;;;;;;;10328835;28;20493;-60
2020/12/25 21:29:54;;;;;;;4.00;2.93;;;;;;;;;;10361740;28;20032;-57
2020/12/25 21:34:52;;;;;;;11.27;4.03;;;;;;;;;;10363825;28;20132;-60
2020/12/25 21:39:49;;;;;;;9.73;6.10;;;;;;;;;;10320178;28;20407;-59
2020/12/25 21:44:47;;;;;;;15.20;7.70;;;;;;;;;;10323880;28;20037;-60
2020/12/25 21:49:44;;;;;;;7.00;5.03;;;;;;;;;;10336194;28;20067;-61
2020/12/25 21:54:42;;;;;;;5.43;3.60;;;;;;;;;;10331662;28;20768;-59
2020/12/25 21:59:39;;;;;;;11.07;6.20;;;;;;;;;;10372039;28;20074;-60
2020/12/25 22:04:36;;;;;;;4.93;4.03;;;;;;;;;;10355300;28;20051;-60
2020/12/25 22:09:34;;;;;;;13.77;7.10;;;;;;;;;;10322782;28;20029;-61
2020/12/25 22:14:31;;;;;;;11.03;4.60;;;;;;;;;;10361020;28;20036;-59
2020/12/25 22:19:29;;;;;;;9.53;5.70;;;;;;;;;;10343132;28;20025;-61
2020/12/25 22:24:26;;;;;;;7.73;4.47;;;;;;;;;;10371918;28;20058;-62
2020/12/25 22:29:23;;;;;;;4.10;2.83;;;;;;;;;;10353822;28;20539;-61
2020/12/25 22:34:21;;;;;;;8.93;3.67;;;;;;;;;;10354254;28;20028;-61
2020/12/25 22:39:23;;;;;;;6.80;4.27;;;;;;;;;;10350369;28;20130;-62
2020/12/25 22:44:21;;;;;;;2.97;2.25;;;;;;;;;;10362610;28;20040;-65
2020/12/25 22:49:20;;;;;;;4.40;3.35;;;;;;;;;;10300201;28;20029;-64
2020/12/25 22:54:17;;;;;;;7.00;3.17;;;;;;;;;;10321737;28;20037;-60
2020/12/25 22:59:15;;;;;;;9.00;3.23;;;;;;;;;;10343729;28;20598;-62
2020/12/25 23:04:12;;;;;;;9.83;3.20;;;;;;;;;;10314078;28;20708;-65
2020/12/25 23:09:10;;;;;;;5.53;2.87;;;;;;;;;;10313142;28;20037;-58
2020/12/25 23:14:08;;;;;;;1.42;1.33;;;;;;;;;;10330353;28;20490;-61
2020/12/25 23:19:05;;;;;;;8.23;3.45;;;;;;;;;;10312110;28;20514;-61
2020/12/25 23:24:03;;;;;;;5.30;2.50;;;;;;;;;;10321288;28;20040;-59
2020/12/25 23:29:00;;;;;;;5.17;3.07;;;;;;;;;;10311384;28;20060;-61
2020/12/25 23:33:58;;;;;;;5.90;3.17;;;;;;;;;;10329550;28;20063;-62
2020/12/25 23:38:55;;;;;;;4.67;3.43;;;;;;;;;;10331408;28;20033;-59
2020/12/25 23:43:53;;;;;;;4.43;2.43;;;;;;;;;;10290464;28;20040;-61
2020/12/25 23:48:50;;;;;;;1.83;1.70;;;;;;;;;;10350870;28;20096;-60
2020/12/25 23:53:48;;;;;;;5.73;1.53;;;;;;;;;;10343565;28;20040;-61
2020/12/25 23:58:45;;;;;;;2.70;1.90;;;;;;;;;;10355177;28;20039;-62
